createdAt,value
2023-08-25T00:01:48.128Z,17.30
2023-08-25T00:04:15.745Z,17.30
2023-08-25T00:06:42.923Z,17.30
2023-08-25T00:09:10.748Z,17.30
2023-08-25T00:11:39.968Z,17.30
2023-08-25T00:14:06.944Z,17.30
2023-08-25T00:16:33.886Z,17.30
2023-08-25T00:19:00.994Z,17.40
2023-08-25T00:21:28.190Z,17.40
2023-08-25T00:23:55.276Z,17.40
2023-08-25T00:26:22.324Z,17.50
2023-08-25T00:28:49.368Z,17.50
2023-08-25T00:31:16.334Z,17.50
2023-08-25T00:33:51.097Z,17.50
2023-08-25T00:36:18.522Z,17.50
2023-08-25T00:38:45.630Z,17.60
2023-08-25T00:41:12.684Z,17.60
2023-08-25T00:43:41.018Z,17.60
2023-08-25T00:46:09.709Z,17.60
2023-08-25T00:48:37.723Z,17.60
2023-08-25T00:51:07.205Z,17.60
2023-08-25T00:53:35.530Z,17.60
2023-08-25T00:56:04.575Z,17.60
2023-08-25T00:58:31.695Z,17.60
2023-08-25T01:01:02.554Z,17.60
2023-08-25T01:03:29.763Z,17.60
2023-08-25T01:05:58.463Z,17.60
2023-08-25T01:08:25.835Z,17.60
2023-08-25T01:10:53.770Z,17.60
2023-08-25T01:13:33.080Z,17.60
2023-08-25T01:16:00.352Z,17.60
2023-08-25T01:18:31.130Z,17.60
2023-08-25T01:21:00.287Z,17.50
2023-08-25T01:24:04.030Z,17.50
2023-08-25T01:26:31.477Z,17.50
2023-08-25T01:28:58.478Z,17.50
2023-08-25T01:31:25.628Z,17.50
2023-08-25T01:33:54.661Z,17.50
2023-08-25T01:36:33.161Z,17.50
2023-08-25T01:39:10.236Z,17.50
2023-08-25T01:41:48.358Z,17.50
2023-08-25T01:44:19.637Z,17.50
2023-08-25T01:46:51.707Z,17.50
2023-08-25T01:49:20.616Z,17.50
2023-08-25T01:51:47.779Z,17.50
2023-08-25T01:54:15.144Z,17.50
2023-08-25T01:56:42.449Z,17.50
2023-08-25T01:59:09.447Z,17.50
2023-08-25T02:01:38.065Z,17.50
2023-08-25T02:04:06.205Z,17.40
2023-08-25T02:06:33.666Z,17.40
2023-08-25T02:09:00.801Z,17.50
2023-08-25T02:11:27.851Z,17.50
2023-08-25T02:13:54.837Z,17.40
2023-08-25T02:16:21.998Z,17.40
2023-08-25T02:18:49.094Z,17.40
2023-08-25T02:21:16.060Z,17.40
2023-08-25T02:23:43.011Z,17.30
2023-08-25T02:26:09.948Z,17.30
2023-08-25T02:28:38.321Z,17.30
2023-08-25T02:31:05.282Z,17.30
2023-08-25T02:33:34.430Z,17.30
2023-08-25T02:36:01.373Z,17.30
2023-08-25T02:38:29.574Z,17.30
2023-08-25T02:40:56.526Z,17.20
2023-08-25T02:43:25.103Z,17.30
2023-08-25T02:45:52.070Z,17.30
2023-08-25T02:48:19.165Z,17.30
2023-08-25T02:50:46.121Z,17.30
2023-08-25T02:53:13.054Z,17.30
2023-08-25T02:55:40.502Z,17.20
2023-08-25T02:58:07.629Z,17.20
2023-08-25T03:00:34.626Z,17.20
2023-08-25T03:03:01.658Z,17.20
2023-08-25T03:05:28.752Z,17.20
2023-08-25T03:07:56.117Z,17.20
2023-08-25T03:10:24.155Z,17.20
2023-08-25T03:12:52.373Z,17.20
2023-08-25T03:15:20.797Z,17.30
2023-08-25T03:17:47.800Z,17.30
2023-08-25T03:20:14.933Z,17.30
2023-08-25T03:22:41.969Z,17.30
2023-08-25T03:25:09.182Z,17.30
2023-08-25T03:27:39.181Z,17.30
2023-08-25T03:30:07.823Z,17.30
2023-08-25T03:32:35.033Z,17.40
2023-08-25T03:35:02.744Z,17.40
2023-08-25T03:37:29.751Z,17.30
2023-08-25T03:39:56.783Z,17.30
2023-08-25T03:42:23.740Z,17.40
2023-08-25T03:44:50.912Z,17.40
2023-08-25T03:47:17.867Z,17.40
2023-08-25T03:49:44.873Z,17.40
2023-08-25T03:52:11.816Z,17.40
2023-08-25T03:54:38.818Z,17.40
2023-08-25T03:57:08.088Z,17.40
2023-08-25T03:59:36.420Z,17.40
2023-08-25T04:02:05.094Z,17.40
2023-08-25T04:04:33.659Z,17.40
2023-08-25T04:07:01.047Z,17.30
2023-08-25T04:09:28.099Z,17.20
2023-08-25T04:11:57.208Z,17.20
2023-08-25T04:14:24.641Z,17.10
2023-08-25T04:16:51.952Z,17.00
2023-08-25T04:19:22.729Z,17.00
2023-08-25T04:21:50.322Z,17.10
2023-08-25T04:24:20.859Z,17.10
2023-08-25T04:26:47.800Z,17.20
2023-08-25T04:29:14.789Z,17.30
2023-08-25T04:31:41.723Z,17.30
2023-08-25T04:34:08.745Z,17.30
2023-08-25T04:36:38.040Z,17.30
2023-08-25T04:39:05.158Z,17.30
2023-08-25T04:41:32.179Z,17.30
2023-08-25T04:43:59.164Z,17.30
2023-08-25T04:46:27.505Z,17.20
2023-08-25T04:48:54.584Z,17.30
2023-08-25T04:51:21.591Z,17.30
2023-08-25T04:53:48.633Z,17.20
2023-08-25T04:56:16.290Z,17.20
2023-08-25T04:58:43.339Z,17.30
2023-08-25T05:01:10.459Z,17.20
2023-08-25T05:03:37.620Z,17.30
2023-08-25T05:06:04.845Z,17.30
2023-08-25T05:08:31.838Z,17.40
2023-08-25T05:10:59.860Z,17.50
2023-08-25T05:13:26.844Z,17.50
2023-08-25T05:15:55.333Z,17.50
2023-08-25T05:18:22.480Z,17.60
2023-08-25T05:20:49.516Z,17.60
2023-08-25T05:23:16.488Z,17.60
2023-08-25T05:25:43.873Z,17.70
2023-08-25T05:28:10.955Z,17.70
2023-08-25T05:30:37.888Z,17.80
2023-08-25T05:33:05.253Z,17.80
2023-08-25T05:35:32.491Z,17.90
2023-08-25T05:37:59.514Z,18.00
2023-08-25T05:40:26.536Z,18.00
2023-08-25T05:42:53.538Z,18.10
2023-08-25T05:45:20.487Z,18.20
2023-08-25T05:47:47.439Z,18.20
2023-08-25T05:50:14.542Z,18.30
2023-08-25T05:52:42.666Z,18.40
2023-08-25T05:55:12.978Z,18.50
2023-08-25T05:57:40.388Z,18.60
2023-08-25T06:00:08.008Z,18.80
2023-08-25T06:02:35.073Z,19.20
2023-08-25T06:05:02.054Z,19.60
2023-08-25T06:07:29.082Z,20.00
2023-08-25T06:09:56.086Z,20.40
2023-08-25T06:12:23.179Z,21.20
2023-08-25T06:14:52.355Z,21.80
2023-08-25T06:17:19.382Z,22.70
2023-08-25T06:19:46.403Z,23.60
2023-08-25T06:22:13.414Z,24.30
2023-08-25T06:24:40.440Z,24.80
2023-08-25T06:27:07.384Z,25.30
2023-08-25T06:29:34.345Z,25.90
2023-08-25T06:32:01.367Z,26.40
2023-08-25T06:34:28.997Z,26.60
2023-08-25T06:36:57.309Z,26.50
2023-08-25T06:39:24.367Z,26.40
2023-08-25T06:41:51.378Z,26.60
2023-08-25T06:44:18.389Z,26.70
2023-08-25T06:46:45.374Z,26.30
2023-08-25T06:49:13.001Z,26.00
2023-08-25T06:51:42.444Z,25.90
2023-08-25T06:54:09.415Z,25.90
2023-08-25T06:56:36.448Z,26.20
2023-08-25T06:59:03.552Z,26.60
2023-08-25T07:01:30.582Z,27.40
2023-08-25T07:03:57.777Z,28.10
2023-08-25T07:06:24.724Z,28.40
2023-08-25T07:08:51.741Z,28.40
2023-08-25T07:11:18.861Z,27.80
2023-08-25T07:13:45.903Z,27.70
2023-08-25T07:16:13.079Z,27.40
2023-08-25T07:18:40.042Z,26.80
2023-08-25T07:21:07.720Z,25.90
2023-08-25T07:23:35.012Z,25.00
2023-08-25T07:26:01.993Z,24.20
2023-08-25T07:28:29.063Z,23.60
2023-08-25T07:30:56.230Z,23.20
2023-08-25T07:33:23.603Z,22.80
2023-08-25T07:35:50.614Z,22.40
2023-08-25T07:38:17.799Z,22.20
2023-08-25T07:40:44.806Z,21.70
2023-08-25T07:43:11.787Z,21.30
2023-08-25T07:45:39.848Z,21.00
2023-08-25T07:48:07.278Z,20.70
2023-08-25T07:50:34.648Z,20.70
2023-08-25T07:53:01.737Z,20.90
2023-08-25T07:55:28.858Z,21.10
2023-08-25T07:57:56.303Z,21.20
2023-08-25T08:00:23.898Z,21.30
2023-08-25T08:02:51.671Z,21.20
2023-08-25T08:05:19.677Z,21.30
2023-08-25T08:07:49.416Z,21.20
2023-08-25T08:10:19.068Z,21.30
2023-08-25T08:12:47.186Z,21.40
2023-08-25T08:15:15.578Z,21.70
2023-08-25T08:17:42.991Z,22.20
2023-08-25T08:20:14.060Z,22.50
2023-08-25T08:22:43.119Z,22.70
2023-08-25T08:25:12.237Z,22.80
2023-08-25T08:27:41.007Z,22.80
2023-08-25T08:30:08.838Z,22.70
2023-08-25T08:32:40.199Z,22.50
2023-08-25T08:35:09.043Z,22.40
2023-08-25T08:37:37.067Z,22.30
2023-08-25T08:40:09.463Z,22.20
2023-08-25T08:42:40.784Z,22.20
2023-08-25T08:45:11.332Z,22.10
2023-08-25T08:47:39.372Z,22.00
2023-08-25T08:50:08.402Z,21.90
2023-08-25T08:52:36.294Z,21.80
2023-08-25T08:55:07.318Z,21.60
2023-08-25T08:57:34.324Z,21.30
2023-08-25T09:00:01.453Z,21.00
2023-08-25T09:02:30.415Z,21.00
2023-08-25T09:05:01.685Z,20.90
2023-08-25T09:07:34.216Z,20.90
2023-08-25T09:10:02.476Z,20.90
2023-08-25T09:12:30.829Z,20.80
2023-08-25T09:14:57.990Z,20.80
2023-08-25T09:17:25.248Z,20.80
2023-08-25T09:19:52.477Z,20.70
2023-08-25T09:22:20.632Z,20.60
2023-08-25T09:24:47.716Z,20.60
2023-08-25T09:27:25.790Z,20.70
2023-08-25T09:30:08.577Z,20.90
2023-08-25T09:32:35.890Z,21.10
2023-08-25T09:35:14.330Z,21.40
2023-08-25T09:37:44.759Z,21.80
2023-08-25T09:40:16.235Z,22.20
2023-08-25T09:42:43.559Z,22.60
2023-08-25T09:45:13.851Z,22.80
2023-08-25T09:47:44.462Z,23.00
2023-08-25T09:50:18.925Z,23.10
2023-08-25T09:52:47.957Z,23.20
2023-08-25T09:55:16.717Z,23.20
2023-08-25T09:57:50.019Z,23.20
2023-08-25T10:00:20.778Z,23.30
2023-08-25T10:02:49.595Z,23.20
2023-08-25T10:05:19.084Z,23.20
2023-08-25T10:07:46.793Z,23.40
2023-08-25T10:10:14.386Z,23.60
2023-08-25T10:12:47.327Z,23.50
2023-08-25T10:15:19.063Z,23.70
2023-08-25T10:17:50.351Z,23.60
2023-08-25T10:20:20.501Z,23.90
2023-08-25T10:22:49.067Z,24.50
2023-08-25T10:25:16.835Z,24.50
2023-08-25T10:27:46.412Z,24.40
2023-08-25T10:30:15.998Z,24.60
2023-08-25T10:32:51.195Z,24.70
2023-08-25T10:35:39.621Z,25.10
2023-08-25T10:38:23.749Z,25.10
2023-08-25T10:40:52.411Z,25.20
2023-08-25T10:43:26.882Z,24.90
2023-08-25T10:45:54.401Z,24.40
2023-08-25T10:48:35.732Z,24.50
2023-08-25T10:51:13.255Z,24.40
2023-08-25T10:53:45.957Z,24.30
2023-08-25T10:56:16.840Z,24.00
2023-08-25T10:58:54.334Z,23.80
2023-08-25T11:01:21.501Z,23.50
2023-08-25T11:04:27.885Z,23.50
2023-08-25T11:06:59.346Z,23.50
2023-08-25T11:09:27.404Z,23.30
2023-08-25T11:12:07.808Z,23.20
2023-08-25T11:14:40.538Z,23.10
2023-08-25T11:17:09.319Z,23.10
2023-08-25T11:19:39.238Z,23.10
2023-08-25T11:22:15.380Z,23.20
2023-08-25T11:24:42.592Z,23.30
2023-08-25T11:27:12.186Z,23.40
2023-08-25T11:29:46.679Z,23.80
2023-08-25T11:32:14.554Z,24.00
2023-08-25T11:34:42.312Z,23.80
2023-08-25T11:37:15.089Z,23.90
2023-08-25T11:39:48.277Z,23.80
2023-08-25T11:42:21.961Z,23.90
2023-08-25T11:44:48.969Z,24.10
2023-08-25T11:47:16.700Z,24.20
2023-08-25T11:49:43.960Z,24.20
2023-08-25T11:52:11.399Z,24.40
2023-08-25T11:54:47.405Z,24.60
2023-08-25T11:57:15.017Z,24.90
2023-08-25T11:59:43.110Z,24.50
2023-08-25T12:02:14.834Z,24.70
2023-08-25T12:04:41.959Z,24.70
2023-08-25T12:07:08.961Z,24.70
2023-08-25T12:09:36.253Z,24.90
2023-08-25T12:12:04.925Z,24.90
2023-08-25T12:14:33.368Z,24.70
2023-08-25T12:17:00.376Z,24.70
2023-08-25T12:19:28.110Z,24.80
2023-08-25T12:21:56.271Z,24.90
2023-08-25T12:24:23.773Z,24.90
2023-08-25T12:26:51.520Z,24.70
2023-08-25T12:29:22.418Z,24.40
2023-08-25T12:31:49.449Z,24.30
2023-08-25T12:34:16.412Z,24.00
2023-08-25T12:36:43.562Z,23.80
2023-08-25T12:39:10.678Z,23.50
2023-08-25T12:41:37.696Z,23.60
2023-08-25T12:44:05.417Z,23.80
2023-08-25T12:46:32.550Z,23.80
2023-08-25T12:48:59.901Z,23.90
2023-08-25T12:51:27.783Z,23.80
2023-08-25T12:53:57.795Z,23.60
2023-08-25T12:56:25.211Z,23.60
2023-08-25T12:58:55.269Z,23.30
2023-08-25T13:01:22.378Z,23.30
2023-08-25T13:03:49.826Z,23.50
2023-08-25T13:06:16.865Z,23.50
2023-08-25T13:08:43.873Z,23.70
2023-08-25T13:11:11.024Z,24.00
2023-08-25T13:13:38.137Z,24.20
2023-08-25T13:16:09.564Z,24.30
2023-08-25T13:18:36.749Z,24.40
2023-08-25T13:21:03.957Z,24.70
2023-08-25T13:23:41.190Z,24.70
2023-08-25T13:26:12.198Z,24.70
2023-08-25T13:28:39.224Z,24.70
2023-08-25T13:31:06.178Z,24.40
2023-08-25T13:33:35.511Z,24.20
2023-08-25T13:36:06.307Z,23.90
2023-08-25T13:38:33.304Z,23.80
2023-08-25T13:41:00.278Z,23.60
2023-08-25T13:43:28.296Z,23.50
2023-08-25T13:45:56.213Z,23.50
2023-08-25T13:48:23.250Z,23.50
2023-08-25T13:50:51.042Z,23.40
2023-08-25T13:53:18.070Z,23.40
2023-08-25T13:55:45.599Z,23.20
2023-08-25T13:58:13.415Z,23.00
2023-08-25T14:00:41.854Z,22.90
2023-08-25T14:03:09.050Z,22.80
2023-08-25T14:05:36.987Z,22.80
2023-08-25T14:08:04.641Z,22.90
2023-08-25T14:10:31.727Z,23.00
2023-08-25T14:12:58.853Z,23.30
2023-08-25T14:15:25.811Z,23.50
2023-08-25T14:17:53.044Z,23.80
2023-08-25T14:20:20.364Z,24.10
2023-08-25T14:22:47.596Z,24.30
2023-08-25T14:25:14.810Z,24.40
2023-08-25T14:27:41.910Z,24.40
2023-08-25T14:30:09.489Z,24.60
2023-08-25T14:32:36.562Z,24.70
2023-08-25T14:35:05.358Z,24.90
2023-08-25T14:37:33.663Z,25.00
2023-08-25T14:40:01.070Z,25.10
2023-08-25T14:42:28.100Z,25.10
2023-08-25T14:44:55.656Z,25.00
2023-08-25T14:47:22.670Z,25.10
2023-08-25T14:49:49.914Z,25.10
2023-08-25T14:52:20.197Z,25.20
2023-08-25T14:54:47.229Z,25.10
2023-08-25T14:57:14.429Z,25.20
2023-08-25T14:59:41.466Z,25.30
2023-08-25T15:02:08.459Z,25.60
2023-08-25T15:04:36.825Z,25.60
2023-08-25T15:07:04.372Z,25.80
2023-08-25T15:09:31.334Z,25.80
2023-08-25T15:11:58.282Z,25.70
2023-08-25T15:14:25.397Z,25.70
2023-08-25T15:16:52.461Z,25.60
2023-08-25T15:19:19.637Z,25.60
2023-08-25T15:21:46.589Z,25.60
2023-08-25T15:24:13.525Z,25.80
2023-08-25T15:26:40.865Z,26.00
2023-08-25T15:29:09.250Z,25.90
2023-08-25T15:31:37.870Z,25.90
2023-08-25T15:34:05.594Z,25.80
2023-08-25T15:36:32.537Z,25.80
2023-08-25T15:39:02.094Z,25.70
2023-08-25T15:41:29.037Z,25.70
2023-08-25T15:43:59.326Z,25.80
2023-08-25T15:46:26.349Z,25.80
2023-08-25T15:48:53.329Z,25.80
2023-08-25T15:51:20.521Z,25.60
2023-08-25T15:53:47.473Z,25.60
2023-08-25T15:56:15.447Z,25.40
2023-08-25T15:58:45.385Z,25.30
2023-08-25T16:01:13.568Z,25.30
2023-08-25T16:03:40.611Z,25.40
2023-08-25T16:06:08.431Z,25.80
2023-08-25T16:08:35.806Z,26.30
2023-08-25T16:11:08.591Z,26.50
2023-08-25T16:13:38.398Z,26.60
2023-08-25T16:16:05.979Z,26.60
2023-08-25T16:18:33.939Z,26.90
2023-08-25T16:21:03.117Z,27.30
2023-08-25T16:23:36.348Z,27.40
2023-08-25T16:26:04.659Z,27.50
2023-08-25T16:28:35.411Z,27.10
2023-08-25T16:31:06.255Z,26.90
2023-08-25T16:33:34.450Z,27.00
2023-08-25T16:36:08.417Z,27.10
2023-08-25T16:38:37.255Z,27.00
2023-08-25T16:41:04.563Z,27.20
2023-08-25T16:43:31.769Z,27.10
2023-08-25T16:45:58.787Z,26.80
2023-08-25T16:48:25.862Z,26.60
2023-08-25T16:50:52.962Z,26.30
2023-08-25T16:53:20.590Z,26.20
2023-08-25T16:55:47.690Z,25.90
2023-08-25T16:58:15.392Z,25.60
2023-08-25T17:00:43.275Z,25.40
2023-08-25T17:03:10.837Z,25.30
2023-08-25T17:05:38.035Z,25.20
2023-08-25T17:08:08.630Z,25.10
2023-08-25T17:10:37.308Z,24.90
2023-08-25T17:13:05.606Z,24.70
2023-08-25T17:15:35.614Z,24.40
2023-08-25T17:18:02.725Z,24.20
2023-08-25T17:20:29.835Z,23.80
2023-08-25T17:22:57.301Z,23.70
2023-08-25T17:25:24.578Z,23.60
2023-08-25T17:27:51.561Z,23.40
2023-08-25T17:30:18.585Z,23.20
2023-08-25T17:32:45.822Z,23.20
2023-08-25T17:35:13.011Z,23.00
2023-08-25T17:37:40.089Z,22.80
2023-08-25T17:40:07.582Z,22.70
2023-08-25T17:42:35.326Z,22.50
2023-08-25T17:45:02.343Z,22.40
2023-08-25T17:47:31.069Z,22.30
2023-08-25T17:49:58.441Z,22.10
2023-08-25T17:52:25.435Z,22.00
2023-08-25T17:54:52.559Z,21.90
2023-08-25T17:57:19.764Z,21.80
2023-08-25T17:59:46.991Z,21.70
2023-08-25T18:02:15.713Z,21.70
2023-08-25T18:04:42.827Z,21.50
2023-08-25T18:07:13.199Z,21.40
2023-08-25T18:09:41.897Z,21.40
2023-08-25T18:12:09.922Z,21.20
2023-08-25T18:14:37.328Z,21.00
2023-08-25T18:17:04.686Z,20.90
2023-08-25T18:19:31.800Z,20.80
2023-08-25T18:21:58.901Z,20.60
2023-08-25T18:24:26.317Z,20.50
2023-08-25T18:26:53.433Z,20.40
2023-08-25T18:29:20.398Z,20.30
2023-08-25T18:31:47.429Z,20.20
2023-08-25T18:34:14.623Z,20.20
2023-08-25T18:36:41.928Z,20.10
2023-08-25T18:39:09.288Z,20.10
2023-08-25T18:41:36.323Z,20.00
2023-08-25T18:44:03.516Z,20.00
2023-08-25T18:46:30.840Z,20.00
2023-08-25T18:48:57.849Z,20.00
2023-08-25T18:51:25.965Z,20.00
2023-08-25T18:53:54.184Z,20.00
2023-08-25T18:56:22.511Z,19.90
2023-08-25T18:58:51.719Z,19.90
2023-08-25T19:01:19.590Z,19.90
2023-08-25T19:03:47.457Z,19.80
2023-08-25T19:06:15.231Z,19.70
2023-08-25T19:08:42.216Z,19.60
2023-08-25T19:11:09.405Z,19.60
2023-08-25T19:13:36.486Z,19.60
2023-08-25T19:16:04.825Z,19.60
2023-08-25T19:18:31.859Z,19.70
2023-08-25T19:21:02.707Z,19.70
2023-08-25T19:23:33.746Z,19.80
2023-08-25T19:26:05.627Z,19.80
2023-08-25T19:28:32.619Z,19.80
2023-08-25T19:31:04.092Z,19.80
2023-08-25T19:33:32.764Z,19.90
2023-08-25T19:36:00.293Z,19.90
2023-08-25T19:38:27.867Z,19.90
2023-08-25T19:40:55.225Z,19.90
2023-08-25T19:43:22.359Z,19.80
2023-08-25T19:45:51.454Z,19.80
2023-08-25T19:48:20.779Z,19.80
2023-08-25T19:50:55.761Z,19.80
2023-08-25T19:53:22.941Z,19.80
2023-08-25T19:55:51.494Z,19.80
2023-08-25T19:58:18.698Z,19.90
2023-08-25T20:00:46.015Z,19.90
2023-08-25T20:03:15.707Z,20.00
2023-08-25T20:06:02.724Z,20.10
2023-08-25T20:08:30.389Z,20.10
2023-08-25T20:11:00.233Z,20.10
2023-08-25T20:13:27.720Z,20.00
2023-08-25T20:15:54.978Z,20.00
2023-08-25T20:18:22.046Z,19.90
2023-08-25T20:20:50.109Z,19.80
2023-08-25T20:23:18.625Z,19.80
2023-08-25T20:25:49.128Z,19.70
2023-08-25T20:28:16.656Z,19.70
2023-08-25T20:30:46.470Z,19.70
2023-08-25T20:33:15.052Z,19.70
2023-08-25T20:35:42.133Z,19.70
2023-08-25T20:38:09.192Z,19.70
2023-08-25T20:40:37.554Z,19.70
2023-08-25T20:43:04.778Z,19.70
2023-08-25T20:45:32.015Z,19.70
2023-08-25T20:47:59.181Z,19.80
2023-08-25T20:50:26.305Z,19.80
2023-08-25T20:52:53.490Z,19.80
2023-08-25T20:55:20.830Z,19.80
2023-08-25T20:57:47.831Z,19.80
2023-08-25T21:00:15.051Z,19.90
2023-08-25T21:02:47.495Z,19.90
2023-08-25T21:05:16.963Z,20.00
2023-08-25T21:07:45.204Z,20.00
2023-08-25T21:10:12.281Z,20.00
2023-08-25T21:12:39.259Z,20.00
2023-08-25T21:15:07.466Z,20.10
2023-08-25T21:17:34.482Z,20.10
2023-08-25T21:20:01.548Z,20.20
2023-08-25T21:22:28.653Z,20.20
2023-08-25T21:24:55.625Z,20.10
2023-08-25T21:27:22.604Z,20.10
2023-08-25T21:29:49.615Z,20.10
2023-08-25T21:32:16.643Z,20.00
2023-08-25T21:34:43.808Z,20.00
2023-08-25T21:37:10.750Z,20.00
2023-08-25T21:39:37.820Z,20.00
2023-08-25T21:42:05.239Z,20.00
2023-08-25T21:44:33.486Z,20.00
2023-08-25T21:47:00.648Z,20.00
2023-08-25T21:49:27.594Z,20.00
2023-08-25T21:51:54.727Z,20.00
2023-08-25T21:54:21.659Z,20.00
2023-08-25T21:56:48.606Z,19.90
2023-08-25T21:59:15.546Z,19.90
2023-08-25T22:01:42.584Z,19.90
2023-08-25T22:04:12.332Z,19.90
2023-08-25T22:06:39.793Z,19.90
2023-08-25T22:09:07.858Z,19.90
2023-08-25T22:11:36.366Z,19.90
2023-08-25T22:14:03.755Z,19.90
2023-08-25T22:16:30.854Z,19.80
2023-08-25T22:18:57.886Z,19.80
2023-08-25T22:21:24.962Z,19.80
2023-08-25T22:23:51.892Z,19.80
2023-08-25T22:26:18.853Z,19.80
2023-08-25T22:28:45.884Z,19.80
2023-08-25T22:31:12.925Z,19.80
2023-08-25T22:36:09.838Z,19.90
2023-08-25T22:38:36.842Z,19.80
2023-08-25T22:41:05.633Z,19.80
2023-08-25T22:43:33.209Z,19.80
2023-08-25T22:46:07.657Z,19.70
2023-08-25T22:48:34.609Z,19.70
2023-08-25T22:51:01.647Z,19.60
2023-08-25T22:53:28.705Z,19.60
2023-08-25T22:55:56.514Z,19.60
2023-08-25T22:58:24.308Z,19.60
2023-08-25T23:00:51.578Z,19.60
2023-08-25T23:03:18.733Z,19.50
2023-08-25T23:05:45.984Z,19.50
2023-08-25T23:08:13.020Z,19.50
2023-08-25T23:10:41.665Z,19.40
2023-08-25T23:13:09.171Z,19.30
2023-08-25T23:15:36.972Z,19.20
2023-08-25T23:18:05.300Z,19.10
2023-08-25T23:20:35.709Z,19.10
2023-08-25T23:23:02.663Z,19.00
2023-08-25T23:25:29.623Z,18.90
2023-08-25T23:27:56.820Z,18.80
2023-08-25T23:30:24.305Z,18.80
2023-08-25T23:32:52.332Z,18.80
2023-08-25T23:35:19.374Z,18.70
2023-08-25T23:37:46.369Z,18.70
2023-08-25T23:40:13.435Z,18.70
2023-08-25T23:42:40.509Z,18.70
2023-08-25T23:45:07.982Z,18.70
2023-08-25T23:47:36.219Z,18.70
2023-08-25T23:50:04.185Z,18.80
2023-08-25T23:52:31.133Z,18.80
2023-08-25T23:54:58.506Z,18.80
2023-08-25T23:57:26.017Z,18.80
2023-08-25T23:59:53.578Z,18.80
